sensor_id;sensor_type;location;lat;lon;timestamp;P1;durP1;ratioP1;P2;durP2;ratioP2
75639;SDS011;64233;51.486;6.332;2023-09-12T00:00:50;26.92;;;14.00;;
75639;SDS011;64233;51.486;6.332;2023-09-12T00:03:19;25.20;;;13.98;;
75639;SDS011;64233;51.486;6.332;2023-09-12T00:05:55;29.52;;;14.65;;
75639;SDS011;64233;51.486;6.332;2023-09-12T00:10:47;28.30;;;13.40;;
75639;SDS011;64233;51.486;6.332;2023-09-12T00:13:12;25.88;;;14.57;;
75639;SDS011;64233;51.486;6.332;2023-09-12T00:15:37;29.10;;;16.47;;
75639;SDS011;64233;51.486;6.332;2023-09-12T00:18:03;25.80;;;14.90;;
75639;SDS011;64233;51.486;6.332;2023-09-12T00:20:29;31.75;;;15.45;;
75639;SDS011;64233;51.486;6.332;2023-09-12T00:22:54;25.73;;;14.30;;
75639;SDS011;64233;51.486;6.332;2023-09-12T00:25:20;31.50;;;16.20;;
75639;SDS011;64233;51.486;6.332;2023-09-12T00:27:46;30.00;;;15.40;;
75639;SDS011;64233;51.486;6.332;2023-09-12T00:30:11;28.33;;;15.60;;
75639;SDS011;64233;51.486;6.332;2023-09-12T00:32:38;28.65;;;15.10;;
75639;SDS011;64233;51.486;6.332;2023-09-12T00:35:04;30.53;;;16.37;;
75639;SDS011;64233;51.486;6.332;2023-09-12T00:37:29;29.75;;;15.38;;
75639;SDS011;64233;51.486;6.332;2023-09-12T00:39:55;29.48;;;15.18;;
75639;SDS011;64233;51.486;6.332;2023-09-12T00:42:20;24.95;;;14.40;;
75639;SDS011;64233;51.486;6.332;2023-09-12T00:44:45;30.30;;;17.03;;
75639;SDS011;64233;51.486;6.332;2023-09-12T00:47:10;26.33;;;14.73;;
75639;SDS011;64233;51.486;6.332;2023-09-12T00:49:37;24.77;;;14.23;;
75639;SDS011;64233;51.486;6.332;2023-09-12T00:52:04;25.38;;;14.25;;
75639;SDS011;64233;51.486;6.332;2023-09-12T00:54:30;23.50;;;13.35;;
75639;SDS011;64233;51.486;6.332;2023-09-12T00:56:55;26.33;;;13.45;;
75639;SDS011;64233;51.486;6.332;2023-09-12T00:59:21;25.52;;;14.68;;
75639;SDS011;64233;51.486;6.332;2023-09-12T01:01:47;27.08;;;14.93;;
75639;SDS011;64233;51.486;6.332;2023-09-12T01:04:13;26.40;;;13.82;;
75639;SDS011;64233;51.486;6.332;2023-09-12T01:06:39;26.70;;;13.50;;
75639;SDS011;64233;51.486;6.332;2023-09-12T01:09:04;25.40;;;13.45;;
75639;SDS011;64233;51.486;6.332;2023-09-12T01:11:30;22.25;;;12.77;;
75639;SDS011;64233;51.486;6.332;2023-09-12T01:13:56;25.23;;;14.23;;
75639;SDS011;64233;51.486;6.332;2023-09-12T01:16:21;25.33;;;14.20;;
75639;SDS011;64233;51.486;6.332;2023-09-12T01:18:46;22.03;;;13.70;;
75639;SDS011;64233;51.486;6.332;2023-09-12T01:21:36;24.25;;;13.85;;
75639;SDS011;64233;51.486;6.332;2023-09-12T01:29:29;24.40;;;13.40;;
75639;SDS011;64233;51.486;6.332;2023-09-12T01:31:56;23.33;;;12.82;;
75639;SDS011;64233;51.486;6.332;2023-09-12T01:34:22;25.92;;;13.25;;
75639;SDS011;64233;51.486;6.332;2023-09-12T01:36:47;24.57;;;13.27;;
75639;SDS011;64233;51.486;6.332;2023-09-12T01:39:13;20.73;;;12.57;;
75639;SDS011;64233;51.486;6.332;2023-09-12T01:41:39;23.00;;;12.93;;
75639;SDS011;64233;51.486;6.332;2023-09-12T01:44:08;20.92;;;12.57;;
75639;SDS011;64233;51.486;6.332;2023-09-12T01:46:35;23.23;;;12.27;;
75639;SDS011;64233;51.486;6.332;2023-09-12T01:49:02;24.15;;;13.18;;
75639;SDS011;64233;51.486;6.332;2023-09-12T01:51:30;29.98;;;12.20;;
75639;SDS011;64233;51.486;6.332;2023-09-12T01:53:56;21.50;;;12.07;;
75639;SDS011;64233;51.486;6.332;2023-09-12T01:56:23;21.73;;;13.93;;
75639;SDS011;64233;51.486;6.332;2023-09-12T01:58:49;18.98;;;11.90;;
75639;SDS011;64233;51.486;6.332;2023-09-12T02:01:14;24.80;;;12.60;;
75639;SDS011;64233;51.486;6.332;2023-09-12T02:03:39;23.60;;;11.52;;
75639;SDS011;64233;51.486;6.332;2023-09-12T02:06:04;24.03;;;12.57;;
75639;SDS011;64233;51.486;6.332;2023-09-12T02:08:30;22.50;;;12.55;;
75639;SDS011;64233;51.486;6.332;2023-09-12T02:10:55;21.77;;;12.37;;
75639;SDS011;64233;51.486;6.332;2023-09-12T02:13:20;18.20;;;10.60;;
75639;SDS011;64233;51.486;6.332;2023-09-12T02:15:46;23.05;;;11.85;;
75639;SDS011;64233;51.486;6.332;2023-09-12T02:18:11;20.73;;;12.03;;
75639;SDS011;64233;51.486;6.332;2023-09-12T02:20:38;22.40;;;13.13;;
75639;SDS011;64233;51.486;6.332;2023-09-12T02:23:04;22.55;;;12.00;;
75639;SDS011;64233;51.486;6.332;2023-09-12T02:25:29;20.05;;;10.70;;
75639;SDS011;64233;51.486;6.332;2023-09-12T02:27:55;25.73;;;12.57;;
75639;SDS011;64233;51.486;6.332;2023-09-12T02:30:20;21.40;;;12.02;;
75639;SDS011;64233;51.486;6.332;2023-09-12T02:32:45;18.38;;;10.82;;
75639;SDS011;64233;51.486;6.332;2023-09-12T02:35:10;19.90;;;10.57;;
75639;SDS011;64233;51.486;6.332;2023-09-12T02:37:36;22.95;;;10.98;;
75639;SDS011;64233;51.486;6.332;2023-09-12T02:40:01;17.58;;;10.63;;
75639;SDS011;64233;51.486;6.332;2023-09-12T02:42:30;22.65;;;12.30;;
75639;SDS011;64233;51.486;6.332;2023-09-12T02:44:55;18.33;;;10.70;;
75639;SDS011;64233;51.486;6.332;2023-09-12T02:47:20;17.98;;;10.43;;
75639;SDS011;64233;51.486;6.332;2023-09-12T02:49:46;15.13;;;9.60;;
75639;SDS011;64233;51.486;6.332;2023-09-12T02:52:11;19.02;;;10.82;;
75639;SDS011;64233;51.486;6.332;2023-09-12T02:54:36;18.30;;;10.87;;
75639;SDS011;64233;51.486;6.332;2023-09-12T02:57:01;17.67;;;10.13;;
75639;SDS011;64233;51.486;6.332;2023-09-12T02:59:27;23.10;;;12.00;;
75639;SDS011;64233;51.486;6.332;2023-09-12T03:01:52;19.08;;;10.35;;
75639;SDS011;64233;51.486;6.332;2023-09-12T03:04:17;17.52;;;11.25;;
75639;SDS011;64233;51.486;6.332;2023-09-12T03:06:43;18.53;;;10.37;;
75639;SDS011;64233;51.486;6.332;2023-09-12T03:09:08;18.92;;;11.55;;
75639;SDS011;64233;51.486;6.332;2023-09-12T03:11:34;18.40;;;11.25;;
75639;SDS011;64233;51.486;6.332;2023-09-12T03:13:59;17.63;;;10.82;;
75639;SDS011;64233;51.486;6.332;2023-09-12T03:16:25;17.13;;;10.40;;
75639;SDS011;64233;51.486;6.332;2023-09-12T03:18:50;19.88;;;11.25;;
75639;SDS011;64233;51.486;6.332;2023-09-12T03:21:16;18.45;;;9.82;;
75639;SDS011;64233;51.486;6.332;2023-09-12T03:23:41;19.33;;;11.18;;
75639;SDS011;64233;51.486;6.332;2023-09-12T03:26:06;16.67;;;10.37;;
75639;SDS011;64233;51.486;6.332;2023-09-12T03:28:32;21.02;;;11.20;;
75639;SDS011;64233;51.486;6.332;2023-09-12T03:31:08;21.67;;;10.75;;
75639;SDS011;64233;51.486;6.332;2023-09-12T03:33:37;19.15;;;10.70;;
75639;SDS011;64233;51.486;6.332;2023-09-12T03:36:03;18.80;;;10.30;;
75639;SDS011;64233;51.486;6.332;2023-09-12T03:38:29;21.02;;;11.25;;
75639;SDS011;64233;51.486;6.332;2023-09-12T03:40:54;17.83;;;10.07;;
75639;SDS011;64233;51.486;6.332;2023-09-12T03:43:20;14.90;;;8.87;;
75639;SDS011;64233;51.486;6.332;2023-09-12T03:45:45;17.08;;;9.00;;
75639;SDS011;64233;51.486;6.332;2023-09-12T03:48:10;17.50;;;9.97;;
75639;SDS011;64233;51.486;6.332;2023-09-12T03:50:35;20.17;;;10.77;;
75639;SDS011;64233;51.486;6.332;2023-09-12T03:53:01;16.93;;;9.70;;
75639;SDS011;64233;51.486;6.332;2023-09-12T03:55:27;20.45;;;10.82;;
75639;SDS011;64233;51.486;6.332;2023-09-12T03:57:52;13.60;;;8.68;;
75639;SDS011;64233;51.486;6.332;2023-09-12T04:00:17;19.67;;;10.10;;
75639;SDS011;64233;51.486;6.332;2023-09-12T04:02:43;18.02;;;9.90;;
75639;SDS011;64233;51.486;6.332;2023-09-12T04:05:08;16.20;;;9.88;;
75639;SDS011;64233;51.486;6.332;2023-09-12T04:07:34;16.77;;;10.50;;
75639;SDS011;64233;51.486;6.332;2023-09-12T04:09:59;19.42;;;10.60;;
75639;SDS011;64233;51.486;6.332;2023-09-12T04:12:25;15.25;;;9.75;;
75639;SDS011;64233;51.486;6.332;2023-09-12T04:14:50;18.33;;;10.43;;
75639;SDS011;64233;51.486;6.332;2023-09-12T04:17:20;21.30;;;10.25;;
75639;SDS011;64233;51.486;6.332;2023-09-12T04:19:45;25.58;;;11.23;;
75639;SDS011;64233;51.486;6.332;2023-09-12T04:22:10;20.70;;;11.55;;
75639;SDS011;64233;51.486;6.332;2023-09-12T04:24:36;20.15;;;11.75;;
75639;SDS011;64233;51.486;6.332;2023-09-12T04:27:01;19.77;;;10.50;;
75639;SDS011;64233;51.486;6.332;2023-09-12T04:29:27;16.75;;;11.07;;
75639;SDS011;64233;51.486;6.332;2023-09-12T04:31:52;20.27;;;10.95;;
75639;SDS011;64233;51.486;6.332;2023-09-12T04:34:23;23.00;;;12.10;;
75639;SDS011;64233;51.486;6.332;2023-09-12T04:36:49;20.63;;;11.68;;
75639;SDS011;64233;51.486;6.332;2023-09-12T04:39:14;18.23;;;11.10;;
75639;SDS011;64233;51.486;6.332;2023-09-12T04:41:39;19.27;;;11.27;;
75639;SDS011;64233;51.486;6.332;2023-09-12T04:44:05;24.75;;;11.32;;
75639;SDS011;64233;51.486;6.332;2023-09-12T04:46:30;20.92;;;11.23;;
75639;SDS011;64233;51.486;6.332;2023-09-12T04:48:55;18.58;;;11.25;;
75639;SDS011;64233;51.486;6.332;2023-09-12T04:51:20;24.13;;;11.50;;
75639;SDS011;64233;51.486;6.332;2023-09-12T04:53:46;23.55;;;12.10;;
75639;SDS011;64233;51.486;6.332;2023-09-12T04:56:16;23.67;;;11.55;;
75639;SDS011;64233;51.486;6.332;2023-09-12T04:58:41;20.88;;;12.15;;
75639;SDS011;64233;51.486;6.332;2023-09-12T05:01:07;20.17;;;13.00;;
75639;SDS011;64233;51.486;6.332;2023-09-12T05:03:32;21.70;;;11.70;;
75639;SDS011;64233;51.486;6.332;2023-09-12T05:05:58;21.05;;;12.32;;
75639;SDS011;64233;51.486;6.332;2023-09-12T05:08:23;24.42;;;12.30;;
75639;SDS011;64233;51.486;6.332;2023-09-12T05:10:49;27.13;;;14.27;;
75639;SDS011;64233;51.486;6.332;2023-09-12T05:13:15;22.50;;;12.48;;
75639;SDS011;64233;51.486;6.332;2023-09-12T05:15:40;21.58;;;11.73;;
75639;SDS011;64233;51.486;6.332;2023-09-12T05:18:06;24.35;;;12.55;;
75639;SDS011;64233;51.486;6.332;2023-09-12T05:20:32;23.73;;;13.55;;
75639;SDS011;64233;51.486;6.332;2023-09-12T05:22:58;26.13;;;13.80;;
75639;SDS011;64233;51.486;6.332;2023-09-12T05:25:23;26.58;;;13.80;;
75639;SDS011;64233;51.486;6.332;2023-09-12T05:27:48;26.23;;;13.55;;
75639;SDS011;64233;51.486;6.332;2023-09-12T05:30:14;26.23;;;14.32;;
75639;SDS011;64233;51.486;6.332;2023-09-12T05:32:40;24.80;;;14.75;;
75639;SDS011;64233;51.486;6.332;2023-09-12T05:35:06;29.02;;;14.30;;
75639;SDS011;64233;51.486;6.332;2023-09-12T05:37:32;26.73;;;13.85;;
75639;SDS011;64233;51.486;6.332;2023-09-12T05:39:57;25.27;;;14.80;;
75639;SDS011;64233;51.486;6.332;2023-09-12T05:42:22;26.33;;;14.83;;
75639;SDS011;64233;51.486;6.332;2023-09-12T05:44:48;23.88;;;13.90;;
75639;SDS011;64233;51.486;6.332;2023-09-12T05:47:14;28.05;;;15.23;;
75639;SDS011;64233;51.486;6.332;2023-09-12T05:49:40;28.17;;;16.10;;
75639;SDS011;64233;51.486;6.332;2023-09-12T05:52:06;26.13;;;15.23;;
75639;SDS011;64233;51.486;6.332;2023-09-12T05:54:31;29.98;;;16.65;;
75639;SDS011;64233;51.486;6.332;2023-09-12T05:56:57;35.92;;;15.80;;
75639;SDS011;64233;51.486;6.332;2023-09-12T05:59:22;30.45;;;16.10;;
75639;SDS011;64233;51.486;6.332;2023-09-12T06:01:47;43.60;;;19.63;;
75639;SDS011;64233;51.486;6.332;2023-09-12T06:04:13;25.88;;;14.57;;
75639;SDS011;64233;51.486;6.332;2023-09-12T06:06:39;32.85;;;15.50;;
75639;SDS011;64233;51.486;6.332;2023-09-12T06:09:04;28.55;;;15.05;;
75639;SDS011;64233;51.486;6.332;2023-09-12T06:11:30;28.33;;;15.52;;
75639;SDS011;64233;51.486;6.332;2023-09-12T06:13:56;28.35;;;14.50;;
75639;SDS011;64233;51.486;6.332;2023-09-12T06:16:21;27.45;;;14.73;;
75639;SDS011;64233;51.486;6.332;2023-09-12T06:18:47;23.95;;;13.13;;
75639;SDS011;64233;51.486;6.332;2023-09-12T06:21:13;26.15;;;14.82;;
75639;SDS011;64233;51.486;6.332;2023-09-12T06:23:39;29.27;;;14.50;;
75639;SDS011;64233;51.486;6.332;2023-09-12T06:26:04;22.88;;;13.75;;
75639;SDS011;64233;51.486;6.332;2023-09-12T06:28:31;28.80;;;15.63;;
75639;SDS011;64233;51.486;6.332;2023-09-12T06:30:57;26.13;;;14.48;;
75639;SDS011;64233;51.486;6.332;2023-09-12T06:33:23;27.83;;;14.05;;
75639;SDS011;64233;51.486;6.332;2023-09-12T06:35:49;32.15;;;14.57;;
75639;SDS011;64233;51.486;6.332;2023-09-12T06:38:17;28.35;;;14.70;;
75639;SDS011;64233;51.486;6.332;2023-09-12T06:40:42;26.38;;;14.90;;
75639;SDS011;64233;51.486;6.332;2023-09-12T06:43:08;28.38;;;14.65;;
75639;SDS011;64233;51.486;6.332;2023-09-12T06:45:33;23.83;;;13.77;;
75639;SDS011;64233;51.486;6.332;2023-09-12T06:48:01;30.70;;;15.60;;
75639;SDS011;64233;51.486;6.332;2023-09-12T06:50:27;32.63;;;15.23;;
75639;SDS011;64233;51.486;6.332;2023-09-12T06:52:52;28.70;;;15.32;;
75639;SDS011;64233;51.486;6.332;2023-09-12T06:55:17;26.97;;;14.77;;
75639;SDS011;64233;51.486;6.332;2023-09-12T06:57:43;31.33;;;15.38;;
75639;SDS011;64233;51.486;6.332;2023-09-12T07:00:08;29.20;;;15.02;;
75639;SDS011;64233;51.486;6.332;2023-09-12T07:02:35;27.95;;;16.30;;
75639;SDS011;64233;51.486;6.332;2023-09-12T07:05:00;33.42;;;16.58;;
75639;SDS011;64233;51.486;6.332;2023-09-12T07:07:25;31.05;;;16.27;;
75639;SDS011;64233;51.486;6.332;2023-09-12T07:09:50;33.00;;;16.75;;
75639;SDS011;64233;51.486;6.332;2023-09-12T07:12:16;26.88;;;15.50;;
75639;SDS011;64233;51.486;6.332;2023-09-12T07:14:41;23.17;;;13.73;;
75639;SDS011;64233;51.486;6.332;2023-09-12T07:17:07;26.70;;;14.30;;
75639;SDS011;64233;51.486;6.332;2023-09-12T07:19:32;24.77;;;14.02;;
75639;SDS011;64233;51.486;6.332;2023-09-12T07:21:58;24.73;;;14.23;;
75639;SDS011;64233;51.486;6.332;2023-09-12T07:24:26;26.73;;;15.33;;
75639;SDS011;64233;51.486;6.332;2023-09-12T07:26:52;22.17;;;13.35;;
75639;SDS011;64233;51.486;6.332;2023-09-12T07:29:17;22.92;;;13.18;;
75639;SDS011;64233;51.486;6.332;2023-09-12T07:31:43;26.77;;;13.93;;
75639;SDS011;64233;51.486;6.332;2023-09-12T07:34:08;25.33;;;13.33;;
75639;SDS011;64233;51.486;6.332;2023-09-12T07:36:34;21.60;;;13.32;;
75639;SDS011;64233;51.486;6.332;2023-09-12T07:39:00;25.77;;;12.85;;
75639;SDS011;64233;51.486;6.332;2023-09-12T07:41:25;22.20;;;13.40;;
75639;SDS011;64233;51.486;6.332;2023-09-12T07:43:50;21.83;;;11.55;;
75639;SDS011;64233;51.486;6.332;2023-09-12T07:46:16;17.90;;;11.25;;
75639;SDS011;64233;51.486;6.332;2023-09-12T07:48:41;21.42;;;11.40;;
75639;SDS011;64233;51.486;6.332;2023-09-12T07:51:16;19.80;;;10.88;;
75639;SDS011;64233;51.486;6.332;2023-09-12T07:53:42;19.25;;;10.52;;
75639;SDS011;64233;51.486;6.332;2023-09-12T07:56:08;19.17;;;11.50;;
75639;SDS011;64233;51.486;6.332;2023-09-12T07:58:35;20.92;;;11.32;;
75639;SDS011;64233;51.486;6.332;2023-09-12T08:01:04;23.25;;;11.70;;
75639;SDS011;64233;51.486;6.332;2023-09-12T08:03:33;19.67;;;10.75;;
75639;SDS011;64233;51.486;6.332;2023-09-12T08:06:00;23.42;;;11.60;;
75639;SDS011;64233;51.486;6.332;2023-09-12T08:08:25;19.35;;;10.70;;
75639;SDS011;64233;51.486;6.332;2023-09-12T08:10:51;19.90;;;12.23;;
75639;SDS011;64233;51.486;6.332;2023-09-12T08:13:16;19.25;;;11.35;;
75639;SDS011;64233;51.486;6.332;2023-09-12T08:15:41;17.13;;;10.80;;
75639;SDS011;64233;51.486;6.332;2023-09-12T08:18:07;21.43;;;12.03;;
75639;SDS011;64233;51.486;6.332;2023-09-12T08:20:32;19.07;;;10.60;;
75639;SDS011;64233;51.486;6.332;2023-09-12T08:22:57;22.25;;;13.10;;
75639;SDS011;64233;51.486;6.332;2023-09-12T08:25:22;19.80;;;11.70;;
75639;SDS011;64233;51.486;6.332;2023-09-12T08:27:49;21.48;;;11.30;;
75639;SDS011;64233;51.486;6.332;2023-09-12T08:30:15;23.92;;;12.60;;
75639;SDS011;64233;51.486;6.332;2023-09-12T08:32:41;21.77;;;12.63;;
75639;SDS011;64233;51.486;6.332;2023-09-12T08:35:09;27.33;;;14.02;;
75639;SDS011;64233;51.486;6.332;2023-09-12T08:37:35;27.52;;;13.70;;
75639;SDS011;64233;51.486;6.332;2023-09-12T08:40:01;21.77;;;12.25;;
75639;SDS011;64233;51.486;6.332;2023-09-12T08:42:26;24.38;;;13.32;;
75639;SDS011;64233;51.486;6.332;2023-09-12T08:44:55;25.33;;;13.90;;
75639;SDS011;64233;51.486;6.332;2023-09-12T08:47:20;22.58;;;13.10;;
75639;SDS011;64233;51.486;6.332;2023-09-12T08:49:47;24.98;;;15.88;;
75639;SDS011;64233;51.486;6.332;2023-09-12T08:52:13;24.85;;;14.43;;
75639;SDS011;64233;51.486;6.332;2023-09-12T08:54:38;23.80;;;13.13;;
75639;SDS011;64233;51.486;6.332;2023-09-12T08:57:05;28.00;;;14.77;;
75639;SDS011;64233;51.486;6.332;2023-09-12T08:59:31;23.23;;;14.05;;
75639;SDS011;64233;51.486;6.332;2023-09-12T09:01:59;22.77;;;14.55;;
75639;SDS011;64233;51.486;6.332;2023-09-12T09:04:25;24.00;;;14.80;;
75639;SDS011;64233;51.486;6.332;2023-09-12T09:06:55;22.90;;;14.52;;
75639;SDS011;64233;51.486;6.332;2023-09-12T09:09:22;26.23;;;14.77;;
75639;SDS011;64233;51.486;6.332;2023-09-12T09:11:49;24.92;;;15.25;;
75639;SDS011;64233;51.486;6.332;2023-09-12T09:14:14;25.02;;;15.43;;
75639;SDS011;64233;51.486;6.332;2023-09-12T09:16:39;26.17;;;13.65;;
75639;SDS011;64233;51.486;6.332;2023-09-12T09:19:05;24.33;;;14.07;;
75639;SDS011;64233;51.486;6.332;2023-09-12T09:21:34;25.70;;;14.85;;
75639;SDS011;64233;51.486;6.332;2023-09-12T09:24:05;23.48;;;15.07;;
75639;SDS011;64233;51.486;6.332;2023-09-12T09:26:45;25.55;;;14.98;;
75639;SDS011;64233;51.486;6.332;2023-09-12T09:29:24;27.77;;;16.42;;
75639;SDS011;64233;51.486;6.332;2023-09-12T09:31:50;25.95;;;15.55;;
75639;SDS011;64233;51.486;6.332;2023-09-12T09:34:17;25.55;;;15.60;;
75639;SDS011;64233;51.486;6.332;2023-09-12T09:36:47;21.73;;;14.18;;
75639;SDS011;64233;51.486;6.332;2023-09-12T09:39:13;23.42;;;14.98;;
75639;SDS011;64233;51.486;6.332;2023-09-12T09:41:40;27.27;;;16.45;;
75639;SDS011;64233;51.486;6.332;2023-09-12T09:44:09;28.45;;;17.80;;
75639;SDS011;64233;51.486;6.332;2023-09-12T09:46:35;27.60;;;16.63;;
75639;SDS011;64233;51.486;6.332;2023-09-12T09:49:02;26.42;;;15.75;;
75639;SDS011;64233;51.486;6.332;2023-09-12T09:51:27;26.83;;;16.55;;
75639;SDS011;64233;51.486;6.332;2023-09-12T09:53:55;24.63;;;15.75;;
75639;SDS011;64233;51.486;6.332;2023-09-12T09:56:23;28.85;;;16.25;;
75639;SDS011;64233;51.486;6.332;2023-09-12T09:58:55;27.23;;;16.35;;
75639;SDS011;64233;51.486;6.332;2023-09-12T10:01:22;27.60;;;16.85;;
75639;SDS011;64233;51.486;6.332;2023-09-12T10:03:52;25.00;;;15.35;;
75639;SDS011;64233;51.486;6.332;2023-09-12T10:06:21;32.13;;;17.90;;
75639;SDS011;64233;51.486;6.332;2023-09-12T10:08:51;29.45;;;17.80;;
75639;SDS011;64233;51.486;6.332;2023-09-12T10:11:17;26.52;;;17.48;;
75639;SDS011;64233;51.486;6.332;2023-09-12T10:13:46;28.85;;;15.38;;
75639;SDS011;64233;51.486;6.332;2023-09-12T10:16:15;26.52;;;14.57;;
75639;SDS011;64233;51.486;6.332;2023-09-12T10:18:43;23.08;;;15.07;;
75639;SDS011;64233;51.486;6.332;2023-09-12T10:21:15;27.95;;;15.52;;
75639;SDS011;64233;51.486;6.332;2023-09-12T10:23:44;26.73;;;14.35;;
75639;SDS011;64233;51.486;6.332;2023-09-12T10:26:13;24.45;;;15.82;;
75639;SDS011;64233;51.486;6.332;2023-09-12T10:28:40;25.17;;;14.38;;
75639;SDS011;64233;51.486;6.332;2023-09-12T10:31:06;26.63;;;15.65;;
75639;SDS011;64233;51.486;6.332;2023-09-12T10:33:33;21.75;;;13.93;;
75639;SDS011;64233;51.486;6.332;2023-09-12T10:35:59;21.55;;;13.55;;
75639;SDS011;64233;51.486;6.332;2023-09-12T10:38:26;23.08;;;14.43;;
75639;SDS011;64233;51.486;6.332;2023-09-12T10:40:53;22.63;;;12.82;;
75639;SDS011;64233;51.486;6.332;2023-09-12T10:43:20;24.73;;;15.07;;
75639;SDS011;64233;51.486;6.332;2023-09-12T10:45:46;24.23;;;14.90;;
75639;SDS011;64233;51.486;6.332;2023-09-12T10:48:14;27.48;;;15.52;;
75639;SDS011;64233;51.486;6.332;2023-09-12T10:50:39;21.83;;;13.52;;
75639;SDS011;64233;51.486;6.332;2023-09-12T10:53:12;21.48;;;13.60;;
75639;SDS011;64233;51.486;6.332;2023-09-12T10:55:39;23.52;;;15.18;;
75639;SDS011;64233;51.486;6.332;2023-09-12T10:58:05;21.05;;;13.00;;
75639;SDS011;64233;51.486;6.332;2023-09-12T11:00:32;22.92;;;12.45;;
75639;SDS011;64233;51.486;6.332;2023-09-12T11:02:58;22.60;;;14.55;;
75639;SDS011;64233;51.486;6.332;2023-09-12T11:07:57;19.08;;;12.85;;
75639;SDS011;64233;51.486;6.332;2023-09-12T11:10:23;22.40;;;15.20;;
75639;SDS011;64233;51.486;6.332;2023-09-12T11:12:50;20.08;;;12.80;;
75639;SDS011;64233;51.486;6.332;2023-09-12T11:15:17;22.17;;;13.27;;
75639;SDS011;64233;51.486;6.332;2023-09-12T11:17:44;22.42;;;12.88;;
75639;SDS011;64233;51.486;6.332;2023-09-12T11:20:11;21.27;;;13.85;;
75639;SDS011;64233;51.486;6.332;2023-09-12T11:22:42;22.15;;;13.77;;
75639;SDS011;64233;51.486;6.332;2023-09-12T11:25:25;24.02;;;14.38;;
75639;SDS011;64233;51.486;6.332;2023-09-12T11:30:20;19.58;;;11.63;;
75639;SDS011;64233;51.486;6.332;2023-09-12T11:32:56;14.85;;;10.00;;
75639;SDS011;64233;51.486;6.332;2023-09-12T11:35:25;19.02;;;11.55;;
75639;SDS011;64233;51.486;6.332;2023-09-12T11:37:58;17.80;;;10.45;;
75639;SDS011;64233;51.486;6.332;2023-09-12T11:43:22;18.15;;;10.70;;
75639;SDS011;64233;51.486;6.332;2023-09-12T11:45:49;17.88;;;10.77;;
75639;SDS011;64233;51.486;6.332;2023-09-12T11:48:16;17.13;;;10.40;;
75639;SDS011;64233;51.486;6.332;2023-09-12T11:50:42;18.02;;;10.65;;
75639;SDS011;64233;51.486;6.332;2023-09-12T11:53:11;17.15;;;10.07;;
75639;SDS011;64233;51.486;6.332;2023-09-12T11:55:42;13.35;;;8.50;;
75639;SDS011;64233;51.486;6.332;2023-09-12T11:58:10;12.40;;;7.55;;
75639;SDS011;64233;51.486;6.332;2023-09-12T12:00:36;16.85;;;9.45;;
75639;SDS011;64233;51.486;6.332;2023-09-12T12:03:02;17.77;;;10.25;;
75639;SDS011;64233;51.486;6.332;2023-09-12T12:05:29;12.50;;;9.63;;
75639;SDS011;64233;51.486;6.332;2023-09-12T12:07:54;15.02;;;8.25;;
75639;SDS011;64233;51.486;6.332;2023-09-12T12:10:19;15.75;;;8.55;;
75639;SDS011;64233;51.486;6.332;2023-09-12T12:12:45;13.75;;;9.07;;
75639;SDS011;64233;51.486;6.332;2023-09-12T12:15:13;16.42;;;10.55;;
75639;SDS011;64233;51.486;6.332;2023-09-12T12:17:41;15.85;;;9.45;;
75639;SDS011;64233;51.486;6.332;2023-09-12T12:20:08;13.45;;;9.35;;
75639;SDS011;64233;51.486;6.332;2023-09-12T12:22:38;14.57;;;9.38;;
75639;SDS011;64233;51.486;6.332;2023-09-12T12:25:08;13.48;;;9.82;;
75639;SDS011;64233;51.486;6.332;2023-09-12T12:27:38;19.38;;;9.70;;
75639;SDS011;64233;51.486;6.332;2023-09-12T12:30:07;15.75;;;9.07;;
75639;SDS011;64233;51.486;6.332;2023-09-12T12:32:35;11.98;;;8.43;;
75639;SDS011;64233;51.486;6.332;2023-09-12T12:35:04;12.75;;;8.55;;
75639;SDS011;64233;51.486;6.332;2023-09-12T12:37:32;14.13;;;9.40;;
75639;SDS011;64233;51.486;6.332;2023-09-12T12:39:58;12.35;;;9.18;;
75639;SDS011;64233;51.486;6.332;2023-09-12T12:42:24;11.48;;;8.75;;
75639;SDS011;64233;51.486;6.332;2023-09-12T12:44:54;16.33;;;9.63;;
75639;SDS011;64233;51.486;6.332;2023-09-12T12:47:20;13.98;;;9.65;;
75639;SDS011;64233;51.486;6.332;2023-09-12T12:49:46;16.70;;;10.25;;
75639;SDS011;64233;51.486;6.332;2023-09-12T12:52:18;16.95;;;9.65;;
75639;SDS011;64233;51.486;6.332;2023-09-12T12:54:48;17.08;;;10.73;;
75639;SDS011;64233;51.486;6.332;2023-09-12T12:57:17;15.43;;;10.27;;
75639;SDS011;64233;51.486;6.332;2023-09-12T12:59:49;15.48;;;8.70;;
75639;SDS011;64233;51.486;6.332;2023-09-12T13:02:15;13.43;;;9.70;;
75639;SDS011;64233;51.486;6.332;2023-09-12T13:04:41;14.75;;;10.10;;
75639;SDS011;64233;51.486;6.332;2023-09-12T13:07:07;17.63;;;9.05;;
75639;SDS011;64233;51.486;6.332;2023-09-12T13:09:32;14.60;;;9.30;;
75639;SDS011;64233;51.486;6.332;2023-09-12T13:11:58;13.85;;;9.48;;
75639;SDS011;64233;51.486;6.332;2023-09-12T13:14:24;12.40;;;8.98;;
75639;SDS011;64233;51.486;6.332;2023-09-12T13:16:55;14.68;;;8.82;;
75639;SDS011;64233;51.486;6.332;2023-09-12T13:19:21;13.32;;;8.52;;
75639;SDS011;64233;51.486;6.332;2023-09-12T13:21:46;14.82;;;9.70;;
75639;SDS011;64233;51.486;6.332;2023-09-12T13:24:12;14.27;;;9.18;;
75639;SDS011;64233;51.486;6.332;2023-09-12T13:26:38;13.65;;;8.88;;
75639;SDS011;64233;51.486;6.332;2023-09-12T13:29:05;12.23;;;9.25;;
75639;SDS011;64233;51.486;6.332;2023-09-12T13:31:30;12.30;;;8.88;;
75639;SDS011;64233;51.486;6.332;2023-09-12T13:33:56;12.88;;;8.60;;
75639;SDS011;64233;51.486;6.332;2023-09-12T13:36:22;11.52;;;8.52;;
75639;SDS011;64233;51.486;6.332;2023-09-12T13:38:48;11.93;;;9.07;;
75639;SDS011;64233;51.486;6.332;2023-09-12T13:41:16;13.38;;;8.65;;
75639;SDS011;64233;51.486;6.332;2023-09-12T13:43:41;12.93;;;8.80;;
75639;SDS011;64233;51.486;6.332;2023-09-12T13:46:06;14.30;;;8.63;;
75639;SDS011;64233;51.486;6.332;2023-09-12T13:48:34;13.70;;;7.93;;
75639;SDS011;64233;51.486;6.332;2023-09-12T13:50:59;14.52;;;8.40;;
75639;SDS011;64233;51.486;6.332;2023-09-12T13:53:25;13.17;;;8.03;;
75639;SDS011;64233;51.486;6.332;2023-09-12T13:55:50;10.30;;;6.97;;
75639;SDS011;64233;51.486;6.332;2023-09-12T13:58:15;15.90;;;7.73;;
75639;SDS011;64233;51.486;6.332;2023-09-12T14:00:40;15.27;;;8.60;;
75639;SDS011;64233;51.486;6.332;2023-09-12T14:03:06;14.40;;;7.55;;
75639;SDS011;64233;51.486;6.332;2023-09-12T14:05:31;11.03;;;6.63;;
75639;SDS011;64233;51.486;6.332;2023-09-12T14:07:56;10.82;;;8.18;;
75639;SDS011;64233;51.486;6.332;2023-09-12T14:10:21;12.60;;;8.17;;
75639;SDS011;64233;51.486;6.332;2023-09-12T14:12:47;11.40;;;8.20;;
75639;SDS011;64233;51.486;6.332;2023-09-12T14:15:12;13.27;;;8.60;;
75639;SDS011;64233;51.486;6.332;2023-09-12T14:17:39;19.08;;;8.90;;
75639;SDS011;64233;51.486;6.332;2023-09-12T14:20:04;14.00;;;8.30;;
75639;SDS011;64233;51.486;6.332;2023-09-12T14:22:30;10.63;;;7.28;;
75639;SDS011;64233;51.486;6.332;2023-09-12T14:24:55;14.03;;;7.07;;
75639;SDS011;64233;51.486;6.332;2023-09-12T14:27:21;11.67;;;7.67;;
75639;SDS011;64233;51.486;6.332;2023-09-12T14:29:46;10.85;;;7.35;;
75639;SDS011;64233;51.486;6.332;2023-09-12T14:32:14;11.88;;;7.15;;
75639;SDS011;64233;51.486;6.332;2023-09-12T14:34:39;9.32;;;7.18;;